sensor_id;sensor_type;location;lat;lon;timestamp;P1;durP1;ratioP1;P2;durP2;ratioP2
40122;SDS011;25832;45.490;4.912;2023-06-14T00:00:47;6.93;;;2.72;;
40122;SDS011;25832;45.490;4.912;2023-06-14T00:03:14;3.53;;;1.70;;
40122;SDS011;25832;45.490;4.912;2023-06-14T00:05:42;4.20;;;2.15;;
40122;SDS011;25832;45.490;4.912;2023-06-14T00:08:08;3.30;;;2.08;;
40122;SDS011;25832;45.490;4.912;2023-06-14T00:10:35;5.65;;;2.45;;
40122;SDS011;25832;45.490;4.912;2023-06-14T00:13:01;3.25;;;1.92;;
40122;SDS011;25832;45.490;4.912;2023-06-14T00:15:29;3.08;;;2.08;;
40122;SDS011;25832;45.490;4.912;2023-06-14T00:17:56;4.68;;;2.53;;
40122;SDS011;25832;45.490;4.912;2023-06-14T00:20:26;6.50;;;2.20;;
40122;SDS011;25832;45.490;4.912;2023-06-14T00:22:52;2.88;;;1.85;;
40122;SDS011;25832;45.490;4.912;2023-06-14T00:25:20;4.47;;;2.47;;
40122;SDS011;25832;45.490;4.912;2023-06-14T00:27:47;5.68;;;2.35;;
40122;SDS011;25832;45.490;4.912;2023-06-14T00:30:12;3.55;;;1.80;;
40122;SDS011;25832;45.490;4.912;2023-06-14T00:32:38;4.47;;;2.40;;
40122;SDS011;25832;45.490;4.912;2023-06-14T00:35:04;4.45;;;2.15;;
40122;SDS011;25832;45.490;4.912;2023-06-14T00:37:30;3.55;;;1.92;;
40122;SDS011;25832;45.490;4.912;2023-06-14T00:39:55;3.65;;;2.28;;
40122;SDS011;25832;45.490;4.912;2023-06-14T00:42:27;8.35;;;2.47;;
40122;SDS011;25832;45.490;4.912;2023-06-14T00:44:54;4.22;;;2.20;;
40122;SDS011;25832;45.490;4.912;2023-06-14T00:47:20;4.65;;;2.10;;
40122;SDS011;25832;45.490;4.912;2023-06-14T00:49:55;4.18;;;2.15;;
40122;SDS011;25832;45.490;4.912;2023-06-14T00:52:22;5.10;;;2.30;;
40122;SDS011;25832;45.490;4.912;2023-06-14T00:54:49;5.97;;;2.15;;
40122;SDS011;25832;45.490;4.912;2023-06-14T00:57:15;4.38;;;2.75;;
40122;SDS011;25832;45.490;4.912;2023-06-14T00:59:45;3.58;;;2.35;;
40122;SDS011;25832;45.490;4.912;2023-06-14T01:02:14;3.42;;;2.00;;
40122;SDS011;25832;45.490;4.912;2023-06-14T01:04:40;2.92;;;2.20;;
40122;SDS011;25832;45.490;4.912;2023-06-14T01:13:05;3.78;;;2.22;;
40122;SDS011;25832;45.490;4.912;2023-06-14T01:15:34;6.95;;;2.28;;
40122;SDS011;25832;45.490;4.912;2023-06-14T01:18:03;3.40;;;2.33;;
40122;SDS011;25832;45.490;4.912;2023-06-14T01:20:31;3.38;;;2.33;;
40122;SDS011;25832;45.490;4.912;2023-06-14T01:22:58;4.05;;;2.45;;
40122;SDS011;25832;45.490;4.912;2023-06-14T01:25:24;3.40;;;2.90;;
40122;SDS011;25832;45.490;4.912;2023-06-14T01:27:58;6.55;;;3.20;;
40122;SDS011;25832;45.490;4.912;2023-06-14T01:30:27;6.55;;;2.90;;
40122;SDS011;25832;45.490;4.912;2023-06-14T01:32:54;4.85;;;3.33;;
40122;SDS011;25832;45.490;4.912;2023-06-14T01:35:20;5.20;;;3.05;;
40122;SDS011;25832;45.490;4.912;2023-06-14T01:37:47;4.57;;;3.33;;
40122;SDS011;25832;45.490;4.912;2023-06-14T01:40:14;7.18;;;3.13;;
40122;SDS011;25832;45.490;4.912;2023-06-14T01:42:41;4.95;;;3.25;;
40122;SDS011;25832;45.490;4.912;2023-06-14T01:45:09;10.13;;;3.03;;
40122;SDS011;25832;45.490;4.912;2023-06-14T01:47:35;4.57;;;3.33;;
40122;SDS011;25832;45.490;4.912;2023-06-14T01:50:02;3.97;;;3.30;;
40122;SDS011;25832;45.490;4.912;2023-06-14T01:52:28;6.13;;;2.95;;
40122;SDS011;25832;45.490;4.912;2023-06-14T01:54:54;4.43;;;2.92;;
40122;SDS011;25832;45.490;4.912;2023-06-14T01:57:20;5.82;;;3.58;;
40122;SDS011;25832;45.490;4.912;2023-06-14T01:59:47;4.03;;;3.30;;
40122;SDS011;25832;45.490;4.912;2023-06-14T02:02:13;5.35;;;3.33;;
40122;SDS011;25832;45.490;4.912;2023-06-14T02:04:39;5.88;;;3.30;;
40122;SDS011;25832;45.490;4.912;2023-06-14T02:07:06;4.43;;;2.92;;
40122;SDS011;25832;45.490;4.912;2023-06-14T02:09:33;5.63;;;2.88;;
40122;SDS011;25832;45.490;4.912;2023-06-14T02:11:59;4.68;;;3.00;;
40122;SDS011;25832;45.490;4.912;2023-06-14T02:14:25;5.88;;;3.40;;
40122;SDS011;25832;45.490;4.912;2023-06-14T02:16:51;5.53;;;3.08;;
40122;SDS011;25832;45.490;4.912;2023-06-14T02:19:18;3.90;;;3.50;;
40122;SDS011;25832;45.490;4.912;2023-06-14T02:21:44;5.22;;;3.30;;
40122;SDS011;25832;45.490;4.912;2023-06-14T02:24:10;4.75;;;3.20;;
40122;SDS011;25832;45.490;4.912;2023-06-14T02:26:36;8.05;;;3.50;;
40122;SDS011;25832;45.490;4.912;2023-06-14T02:29:06;9.65;;;4.43;;
40122;SDS011;25832;45.490;4.912;2023-06-14T02:31:35;7.55;;;3.45;;
40122;SDS011;25832;45.490;4.912;2023-06-14T02:34:01;6.05;;;3.85;;
40122;SDS011;25832;45.490;4.912;2023-06-14T02:36:26;8.52;;;3.60;;
40122;SDS011;25832;45.490;4.912;2023-06-14T02:38:54;4.53;;;2.72;;
40122;SDS011;25832;45.490;4.912;2023-06-14T02:41:22;4.80;;;3.45;;
40122;SDS011;25832;45.490;4.912;2023-06-14T02:43:48;7.68;;;3.47;;
40122;SDS011;25832;45.490;4.912;2023-06-14T02:46:14;3.85;;;3.00;;
40122;SDS011;25832;45.490;4.912;2023-06-14T02:48:40;7.07;;;3.22;;
40122;SDS011;25832;45.490;4.912;2023-06-14T02:51:05;5.82;;;3.30;;
40122;SDS011;25832;45.490;4.912;2023-06-14T02:53:33;5.47;;;3.50;;
40122;SDS011;25832;45.490;4.912;2023-06-14T02:55:59;4.15;;;2.80;;
40122;SDS011;25832;45.490;4.912;2023-06-14T02:58:26;4.32;;;3.55;;
40122;SDS011;25832;45.490;4.912;2023-06-14T03:00:51;4.28;;;3.40;;
40122;SDS011;25832;45.490;4.912;2023-06-14T03:03:20;7.22;;;3.53;;
40122;SDS011;25832;45.490;4.912;2023-06-14T03:05:47;3.97;;;3.08;;
40122;SDS011;25832;45.490;4.912;2023-06-14T03:08:17;6.93;;;3.25;;
40122;SDS011;25832;45.490;4.912;2023-06-14T03:10:47;4.30;;;3.25;;
40122;SDS011;25832;45.490;4.912;2023-06-14T03:13:13;6.38;;;3.03;;
40122;SDS011;25832;45.490;4.912;2023-06-14T03:15:41;5.90;;;3.00;;
40122;SDS011;25832;45.490;4.912;2023-06-14T03:18:07;7.22;;;2.85;;
40122;SDS011;25832;45.490;4.912;2023-06-14T03:20:34;8.80;;;3.50;;
40122;SDS011;25832;45.490;4.912;2023-06-14T03:23:01;6.60;;;3.05;;
40122;SDS011;25832;45.490;4.912;2023-06-14T03:25:27;5.30;;;3.47;;
40122;SDS011;25832;45.490;4.912;2023-06-14T03:30:23;6.05;;;3.50;;
40122;SDS011;25832;45.490;4.912;2023-06-14T03:32:49;4.97;;;3.33;;
40122;SDS011;25832;45.490;4.912;2023-06-14T03:35:17;5.90;;;3.15;;
40122;SDS011;25832;45.490;4.912;2023-06-14T03:37:44;5.82;;;3.03;;
40122;SDS011;25832;45.490;4.912;2023-06-14T03:40:11;3.03;;;2.70;;
40122;SDS011;25832;45.490;4.912;2023-06-14T03:42:37;5.90;;;3.20;;
40122;SDS011;25832;45.490;4.912;2023-06-14T03:45:03;4.97;;;3.13;;
40122;SDS011;25832;45.490;4.912;2023-06-14T03:47:29;6.70;;;3.03;;
40122;SDS011;25832;45.490;4.912;2023-06-14T03:49:55;4.68;;;3.00;;
40122;SDS011;25832;45.490;4.912;2023-06-14T03:52:21;5.32;;;3.28;;
40122;SDS011;25832;45.490;4.912;2023-06-14T03:54:48;7.38;;;2.97;;
40122;SDS011;25832;45.490;4.912;2023-06-14T03:57:14;4.82;;;3.35;;
40122;SDS011;25832;45.490;4.912;2023-06-14T03:59:40;4.90;;;3.25;;
40122;SDS011;25832;45.490;4.912;2023-06-14T04:02:06;3.30;;;2.78;;
40122;SDS011;25832;45.490;4.912;2023-06-14T04:04:34;4.15;;;2.92;;
40122;SDS011;25832;45.490;4.912;2023-06-14T04:07:00;5.45;;;2.80;;
40122;SDS011;25832;45.490;4.912;2023-06-14T04:09:28;3.63;;;2.78;;
40122;SDS011;25832;45.490;4.912;2023-06-14T04:11:54;3.25;;;2.63;;
40122;SDS011;25832;45.490;4.912;2023-06-14T04:14:21;4.07;;;3.25;;
40122;SDS011;25832;45.490;4.912;2023-06-14T04:16:47;6.55;;;3.40;;
40122;SDS011;25832;45.490;4.912;2023-06-14T04:19:14;5.22;;;3.30;;
40122;SDS011;25832;45.490;4.912;2023-06-14T04:21:41;4.55;;;3.17;;
40122;SDS011;25832;45.490;4.912;2023-06-14T04:24:07;6.82;;;3.63;;
40122;SDS011;25832;45.490;4.912;2023-06-14T04:26:38;4.75;;;3.35;;
40122;SDS011;25832;45.490;4.912;2023-06-14T04:29:05;6.07;;;3.97;;
40122;SDS011;25832;45.490;4.912;2023-06-14T04:31:31;6.72;;;3.47;;
40122;SDS011;25832;45.490;4.912;2023-06-14T04:33:59;3.10;;;2.67;;
40122;SDS011;25832;45.490;4.912;2023-06-14T04:36:25;4.18;;;3.20;;
40122;SDS011;25832;45.490;4.912;2023-06-14T04:38:52;3.78;;;2.92;;
40122;SDS011;25832;45.490;4.912;2023-06-14T04:41:20;6.35;;;3.92;;
40122;SDS011;25832;45.490;4.912;2023-06-14T04:43:48;7.28;;;3.28;;
40122;SDS011;25832;45.490;4.912;2023-06-14T04:46:14;4.63;;;3.08;;
40122;SDS011;25832;45.490;4.912;2023-06-14T04:48:40;4.13;;;2.95;;
40122;SDS011;25832;45.490;4.912;2023-06-14T04:51:10;4.53;;;3.05;;
40122;SDS011;25832;45.490;4.912;2023-06-14T04:53:36;4.72;;;3.15;;
40122;SDS011;25832;45.490;4.912;2023-06-14T04:56:02;5.45;;;3.05;;
40122;SDS011;25832;45.490;4.912;2023-06-14T04:58:28;4.15;;;3.15;;
40122;SDS011;25832;45.490;4.912;2023-06-14T05:00:55;5.82;;;3.10;;
40122;SDS011;25832;45.490;4.912;2023-06-14T05:03:21;4.28;;;3.10;;
40122;SDS011;25832;45.490;4.912;2023-06-14T05:05:49;6.15;;;3.30;;
40122;SDS011;25832;45.490;4.912;2023-06-14T05:08:15;5.53;;;2.88;;
40122;SDS011;25832;45.490;4.912;2023-06-14T05:10:41;5.40;;;2.78;;
40122;SDS011;25832;45.490;4.912;2023-06-14T05:13:07;6.85;;;4.15;;
40122;SDS011;25832;45.490;4.912;2023-06-14T05:15:32;4.53;;;2.97;;
40122;SDS011;25832;45.490;4.912;2023-06-14T05:17:59;5.18;;;3.22;;
40122;SDS011;25832;45.490;4.912;2023-06-14T05:20:25;6.15;;;3.42;;
40122;SDS011;25832;45.490;4.912;2023-06-14T05:22:54;5.57;;;3.30;;
40122;SDS011;25832;45.490;4.912;2023-06-14T05:25:22;4.03;;;3.20;;
40122;SDS011;25832;45.490;4.912;2023-06-14T05:27:48;4.97;;;3.42;;
40122;SDS011;25832;45.490;4.912;2023-06-14T05:30:14;6.20;;;2.90;;
40122;SDS011;25832;45.490;4.912;2023-06-14T05:32:40;7.80;;;3.63;;
40122;SDS011;25832;45.490;4.912;2023-06-14T05:35:06;5.72;;;3.13;;
40122;SDS011;25832;45.490;4.912;2023-06-14T05:37:32;6.43;;;2.92;;
40122;SDS011;25832;45.490;4.912;2023-06-14T05:39:58;3.30;;;3.00;;
40122;SDS011;25832;45.490;4.912;2023-06-14T05:42:23;4.10;;;2.23;;
40122;SDS011;25832;45.490;4.912;2023-06-14T05:44:49;4.03;;;3.22;;
40122;SDS011;25832;45.490;4.912;2023-06-14T05:47:15;4.40;;;3.60;;
40122;SDS011;25832;45.490;4.912;2023-06-14T05:49:41;3.83;;;3.08;;
40122;SDS011;25832;45.490;4.912;2023-06-14T05:52:07;6.57;;;2.88;;
40122;SDS011;25832;45.490;4.912;2023-06-14T05:54:33;3.85;;;3.28;;
40122;SDS011;25832;45.490;4.912;2023-06-14T05:56:59;4.78;;;3.55;;
40122;SDS011;25832;45.490;4.912;2023-06-14T05:59:26;7.78;;;3.83;;
40122;SDS011;25832;45.490;4.912;2023-06-14T06:01:52;3.83;;;3.30;;
40122;SDS011;25832;45.490;4.912;2023-06-14T06:04:18;5.07;;;3.15;;
40122;SDS011;25832;45.490;4.912;2023-06-14T06:06:44;5.68;;;3.63;;
40122;SDS011;25832;45.490;4.912;2023-06-14T06:09:10;4.35;;;3.38;;
40122;SDS011;25832;45.490;4.912;2023-06-14T06:11:36;6.55;;;3.00;;
40122;SDS011;25832;45.490;4.912;2023-06-14T06:14:01;6.32;;;2.60;;
40122;SDS011;25832;45.490;4.912;2023-06-14T06:16:27;5.38;;;2.95;;
40122;SDS011;25832;45.490;4.912;2023-06-14T06:18:53;4.35;;;3.13;;
40122;SDS011;25832;45.490;4.912;2023-06-14T06:21:19;4.65;;;3.08;;
40122;SDS011;25832;45.490;4.912;2023-06-14T06:23:44;4.68;;;3.40;;
40122;SDS011;25832;45.490;4.912;2023-06-14T06:26:10;4.53;;;3.10;;
40122;SDS011;25832;45.490;4.912;2023-06-14T06:28:36;5.95;;;3.00;;
40122;SDS011;25832;45.490;4.912;2023-06-14T06:31:01;4.53;;;2.95;;
40122;SDS011;25832;45.490;4.912;2023-06-14T06:33:28;4.70;;;2.95;;
40122;SDS011;25832;45.490;4.912;2023-06-14T06:35:53;7.25;;;2.90;;
40122;SDS011;25832;45.490;4.912;2023-06-14T06:38:19;7.85;;;3.00;;
40122;SDS011;25832;45.490;4.912;2023-06-14T06:40:45;3.40;;;2.83;;
40122;SDS011;25832;45.490;4.912;2023-06-14T06:43:10;4.28;;;3.20;;
40122;SDS011;25832;45.490;4.912;2023-06-14T06:45:39;4.78;;;3.15;;
40122;SDS011;25832;45.490;4.912;2023-06-14T06:48:07;3.90;;;2.88;;
40122;SDS011;25832;45.490;4.912;2023-06-14T06:50:35;5.18;;;3.28;;
40122;SDS011;25832;45.490;4.912;2023-06-14T06:53:01;4.85;;;3.05;;
40122;SDS011;25832;45.490;4.912;2023-06-14T06:55:27;4.40;;;3.35;;
40122;SDS011;25832;45.490;4.912;2023-06-14T06:57:53;5.00;;;3.28;;
40122;SDS011;25832;45.490;4.912;2023-06-14T07:00:19;5.85;;;3.40;;
40122;SDS011;25832;45.490;4.912;2023-06-14T07:02:45;4.65;;;3.42;;
40122;SDS011;25832;45.490;4.912;2023-06-14T07:05:11;4.72;;;3.25;;
40122;SDS011;25832;45.490;4.912;2023-06-14T07:07:37;4.13;;;2.90;;
40122;SDS011;25832;45.490;4.912;2023-06-14T07:10:03;5.82;;;2.90;;
40122;SDS011;25832;45.490;4.912;2023-06-14T07:12:30;5.35;;;3.70;;
40122;SDS011;25832;45.490;4.912;2023-06-14T07:14:58;6.15;;;3.50;;
40122;SDS011;25832;45.490;4.912;2023-06-14T07:17:25;4.70;;;3.63;;
40122;SDS011;25832;45.490;4.912;2023-06-14T07:19:51;4.60;;;3.10;;
40122;SDS011;25832;45.490;4.912;2023-06-14T07:22:16;4.97;;;3.35;;
40122;SDS011;25832;45.490;4.912;2023-06-14T07:24:42;5.57;;;3.80;;
40122;SDS011;25832;45.490;4.912;2023-06-14T07:27:08;5.88;;;4.78;;
40122;SDS011;25832;45.490;4.912;2023-06-14T07:29:34;7.50;;;4.57;;
40122;SDS011;25832;45.490;4.912;2023-06-14T07:31:59;5.20;;;4.68;;
40122;SDS011;25832;45.490;4.912;2023-06-14T07:34:25;11.75;;;5.97;;
40122;SDS011;25832;45.490;4.912;2023-06-14T07:36:52;8.45;;;5.90;;
40122;SDS011;25832;45.490;4.912;2023-06-14T07:39:19;7.63;;;5.88;;
40122;SDS011;25832;45.490;4.912;2023-06-14T07:41:45;8.98;;;6.47;;
40122;SDS011;25832;45.490;4.912;2023-06-14T07:44:10;7.63;;;5.57;;
40122;SDS011;25832;45.490;4.912;2023-06-14T07:46:37;8.98;;;6.65;;
40122;SDS011;25832;45.490;4.912;2023-06-14T07:49:03;8.50;;;6.07;;
40122;SDS011;25832;45.490;4.912;2023-06-14T07:51:29;11.07;;;6.47;;
40122;SDS011;25832;45.490;4.912;2023-06-14T07:53:54;7.65;;;6.10;;
40122;SDS011;25832;45.490;4.912;2023-06-14T07:56:21;11.68;;;6.90;;
40122;SDS011;25832;45.490;4.912;2023-06-14T07:58:48;10.15;;;7.45;;
40122;SDS011;25832;45.490;4.912;2023-06-14T08:01:14;11.13;;;6.95;;
40122;SDS011;25832;45.490;4.912;2023-06-14T08:03:40;8.27;;;6.53;;
40122;SDS011;25832;45.490;4.912;2023-06-14T08:06:06;9.88;;;7.43;;
40122;SDS011;25832;45.490;4.912;2023-06-14T08:08:32;11.38;;;6.53;;
40122;SDS011;25832;45.490;4.912;2023-06-14T08:10:58;9.25;;;6.50;;
40122;SDS011;25832;45.490;4.912;2023-06-14T08:13:24;11.15;;;6.70;;
40122;SDS011;25832;45.490;4.912;2023-06-14T08:15:49;8.63;;;6.78;;
40122;SDS011;25832;45.490;4.912;2023-06-14T08:18:16;9.88;;;7.32;;
40122;SDS011;25832;45.490;4.912;2023-06-14T08:20:41;14.07;;;6.70;;
40122;SDS011;25832;45.490;4.912;2023-06-14T08:23:07;11.30;;;7.43;;
40122;SDS011;25832;45.490;4.912;2023-06-14T08:25:34;10.70;;;6.43;;
40122;SDS011;25832;45.490;4.912;2023-06-14T08:27:59;11.40;;;6.90;;
40122;SDS011;25832;45.490;4.912;2023-06-14T08:30:25;8.90;;;6.97;;
40122;SDS011;25832;45.490;4.912;2023-06-14T08:32:51;13.73;;;7.35;;
40122;SDS011;25832;45.490;4.912;2023-06-14T08:35:17;8.32;;;6.03;;
40122;SDS011;25832;45.490;4.912;2023-06-14T08:37:43;8.70;;;6.43;;
40122;SDS011;25832;45.490;4.912;2023-06-14T08:40:17;8.05;;;6.63;;
40122;SDS011;25832;45.490;4.912;2023-06-14T08:42:46;10.05;;;7.38;;
40122;SDS011;25832;45.490;4.912;2023-06-14T08:45:17;10.02;;;7.55;;
40122;SDS011;25832;45.490;4.912;2023-06-14T08:47:45;10.73;;;7.53;;
40122;SDS011;25832;45.490;4.912;2023-06-14T08:50:17;14.75;;;7.53;;
40122;SDS011;25832;45.490;4.912;2023-06-14T08:52:45;9.05;;;6.00;;
40122;SDS011;25832;45.490;4.912;2023-06-14T08:55:15;9.98;;;7.38;;
40122;SDS011;25832;45.490;4.912;2023-06-14T08:57:42;12.63;;;7.35;;
40122;SDS011;25832;45.490;4.912;2023-06-14T09:00:09;11.23;;;7.47;;
40122;SDS011;25832;45.490;4.912;2023-06-14T09:02:38;12.73;;;9.07;;
40122;SDS011;25832;45.490;4.912;2023-06-14T09:05:08;10.95;;;8.20;;
40122;SDS011;25832;45.490;4.912;2023-06-14T09:07:43;10.52;;;7.43;;
40122;SDS011;25832;45.490;4.912;2023-06-14T09:10:09;13.13;;;8.73;;
40122;SDS011;25832;45.490;4.912;2023-06-14T09:12:36;13.45;;;8.60;;
40122;SDS011;25832;45.490;4.912;2023-06-14T09:15:05;10.98;;;8.88;;
40122;SDS011;25832;45.490;4.912;2023-06-14T09:17:33;14.13;;;8.95;;
40122;SDS011;25832;45.490;4.912;2023-06-14T09:20:01;23.38;;;9.68;;
40122;SDS011;25832;45.490;4.912;2023-06-14T09:22:31;13.40;;;8.70;;
40122;SDS011;25832;45.490;4.912;2023-06-14T09:24:57;11.63;;;7.97;;
40122;SDS011;25832;45.490;4.912;2023-06-14T09:27:25;10.05;;;7.43;;
40122;SDS011;25832;45.490;4.912;2023-06-14T09:29:52;16.77;;;8.07;;
40122;SDS011;25832;45.490;4.912;2023-06-14T09:32:18;13.90;;;8.57;;
40122;SDS011;25832;45.490;4.912;2023-06-14T09:34:44;11.93;;;7.50;;
40122;SDS011;25832;45.490;4.912;2023-06-14T09:37:10;17.23;;;8.45;;
40122;SDS011;25832;45.490;4.912;2023-06-14T09:39:48;16.35;;;8.40;;
40122;SDS011;25832;45.490;4.912;2023-06-14T09:42:17;11.57;;;7.60;;
40122;SDS011;25832;45.490;4.912;2023-06-14T09:44:48;10.75;;;7.55;;
40122;SDS011;25832;45.490;4.912;2023-06-14T09:47:17;11.30;;;6.75;;
40122;SDS011;25832;45.490;4.912;2023-06-14T09:49:43;8.68;;;7.03;;
40122;SDS011;25832;45.490;4.912;2023-06-14T09:52:10;8.02;;;5.93;;
40122;SDS011;25832;45.490;4.912;2023-06-14T09:54:41;10.07;;;6.40;;
40122;SDS011;25832;45.490;4.912;2023-06-14T09:57:09;11.70;;;7.38;;
40122;SDS011;25832;45.490;4.912;2023-06-14T09:59:36;7.60;;;6.30;;
40122;SDS011;25832;45.490;4.912;2023-06-14T10:02:08;11.95;;;7.13;;
40122;SDS011;25832;45.490;4.912;2023-06-14T10:07:30;11.30;;;6.63;;
40122;SDS011;25832;45.490;4.912;2023-06-14T10:09:59;8.65;;;6.07;;
40122;SDS011;25832;45.490;4.912;2023-06-14T10:12:26;8.52;;;5.50;;
40122;SDS011;25832;45.490;4.912;2023-06-14T10:14:52;9.50;;;6.65;;
40122;SDS011;25832;45.490;4.912;2023-06-14T10:22:58;8.38;;;5.93;;
40122;SDS011;25832;45.490;4.912;2023-06-14T10:25:29;10.52;;;6.53;;
40122;SDS011;25832;45.490;4.912;2023-06-14T10:28:29;7.63;;;6.32;;
40122;SDS011;25832;45.490;4.912;2023-06-14T10:31:08;15.30;;;7.25;;
40122;SDS011;25832;45.490;4.912;2023-06-14T10:33:36;7.32;;;5.82;;
40122;SDS011;25832;45.490;4.912;2023-06-14T10:38:56;7.88;;;5.60;;
40122;SDS011;25832;45.490;4.912;2023-06-14T10:41:24;9.15;;;6.05;;
40122;SDS011;25832;45.490;4.912;2023-06-14T10:46:37;10.32;;;6.13;;
40122;SDS011;25832;45.490;4.912;2023-06-14T10:49:19;8.30;;;6.85;;
40122;SDS011;25832;45.490;4.912;2023-06-14T10:51:46;7.90;;;6.10;;
40122;SDS011;25832;45.490;4.912;2023-06-14T10:54:16;9.65;;;5.57;;
40122;SDS011;25832;45.490;4.912;2023-06-14T10:56:49;9.63;;;5.47;;
40122;SDS011;25832;45.490;4.912;2023-06-14T10:59:17;7.05;;;6.00;;
40122;SDS011;25832;45.490;4.912;2023-06-14T11:04:49;6.55;;;5.20;;
40122;SDS011;25832;45.490;4.912;2023-06-14T11:12:45;7.97;;;6.38;;
40122;SDS011;25832;45.490;4.912;2023-06-14T11:15:12;6.68;;;5.82;;
40122;SDS011;25832;45.490;4.912;2023-06-14T11:17:38;9.23;;;6.13;;
40122;SDS011;25832;45.490;4.912;2023-06-14T11:20:10;9.18;;;5.95;;
40122;SDS011;25832;45.490;4.912;2023-06-14T11:22:43;6.78;;;5.50;;
40122;SDS011;25832;45.490;4.912;2023-06-14T11:25:13;10.13;;;5.10;;
40122;SDS011;25832;45.490;4.912;2023-06-14T11:27:38;8.23;;;4.97;;
40122;SDS011;25832;45.490;4.912;2023-06-14T11:30:07;7.15;;;4.78;;
40122;SDS011;25832;45.490;4.912;2023-06-14T11:32:34;10.88;;;5.20;;
40122;SDS011;25832;45.490;4.912;2023-06-14T11:35:01;7.05;;;5.40;;
40122;SDS011;25832;45.490;4.912;2023-06-14T11:37:30;10.47;;;5.40;;
40122;SDS011;25832;45.490;4.912;2023-06-14T11:39:59;6.13;;;5.53;;
40122;SDS011;25832;45.490;4.912;2023-06-14T11:42:29;5.85;;;5.15;;
40122;SDS011;25832;45.490;4.912;2023-06-14T11:44:55;6.60;;;4.70;;
40122;SDS011;25832;45.490;4.912;2023-06-14T11:47:21;9.70;;;5.55;;
40122;SDS011;25832;45.490;4.912;2023-06-14T11:49:47;7.20;;;4.88;;
40122;SDS011;25832;45.490;4.912;2023-06-14T11:52:13;6.57;;;4.90;;
40122;SDS011;25832;45.490;4.912;2023-06-14T11:54:39;7.28;;;4.88;;
40122;SDS011;25832;45.490;4.912;2023-06-14T11:57:06;8.23;;;4.85;;
40122;SDS011;25832;45.490;4.912;2023-06-14T11:59:37;8.10;;;5.28;;
40122;SDS011;25832;45.490;4.912;2023-06-14T12:02:04;5.68;;;4.57;;
40122;SDS011;25832;45.490;4.912;2023-06-14T12:04:31;5.30;;;4.65;;
40122;SDS011;25832;45.490;4.912;2023-06-14T12:06:57;6.53;;;3.85;;
40122;SDS011;25832;45.490;4.912;2023-06-14T12:09:39;5.80;;;4.78;;
40122;SDS011;25832;45.490;4.912;2023-06-14T12:12:05;12.20;;;4.38;;
40122;SDS011;25832;45.490;4.912;2023-06-14T12:14:31;15.73;;;4.93;;
40122;SDS011;25832;45.490;4.912;2023-06-14T12:17:06;6.85;;;4.35;;
40122;SDS011;25832;45.490;4.912;2023-06-14T12:19:32;8.02;;;4.47;;
40122;SDS011;25832;45.490;4.912;2023-06-14T12:22:01;7.38;;;4.07;;
40122;SDS011;25832;45.490;4.912;2023-06-14T12:24:29;5.57;;;4.95;;
40122;SDS011;25832;45.490;4.912;2023-06-14T12:27:00;11.05;;;5.13;;
40122;SDS011;25832;45.490;4.912;2023-06-14T12:29:28;5.85;;;4.97;;
40122;SDS011;25832;45.490;4.912;2023-06-14T12:31:54;6.93;;;4.38;;
40122;SDS011;25832;45.490;4.912;2023-06-14T12:34:22;5.75;;;4.57;;
40122;SDS011;25832;45.490;4.912;2023-06-14T12:36:49;4.72;;;4.13;;
40122;SDS011;25832;45.490;4.912;2023-06-14T12:39:15;6.40;;;4.45;;
40122;SDS011;25832;45.490;4.912;2023-06-14T12:41:41;9.35;;;4.88;;
40122;SDS011;25832;45.490;4.912;2023-06-14T12:44:07;7.38;;;4.82;;
40122;SDS011;25832;45.490;4.912;2023-06-14T12:46:33;11.77;;;5.03;;
40122;SDS011;25832;45.490;4.912;2023-06-14T12:49:00;6.57;;;4.20;;
40122;SDS011;25832;45.490;4.912;2023-06-14T12:51:26;6.85;;;4.65;;
40122;SDS011;25832;45.490;4.912;2023-06-14T12:53:52;7.53;;;4.90;;
40122;SDS011;25832;45.490;4.912;2023-06-14T12:56:17;8.32;;;4.22;;
40122;SDS011;25832;45.490;4.912;2023-06-14T12:58:43;8.90;;;5.10;;
40122;SDS011;25832;45.490;4.912;2023-06-14T13:01:09;6.50;;;4.55;;
40122;SDS011;25832;45.490;4.912;2023-06-14T13:03:34;7.22;;;4.68;;
40122;SDS011;25832;45.490;4.912;2023-06-14T13:06:00;8.48;;;4.80;;
40122;SDS011;25832;45.490;4.912;2023-06-14T13:08:27;6.05;;;4.85;;
40122;SDS011;25832;45.490;4.912;2023-06-14T13:10:53;9.52;;;5.50;;
40122;SDS011;25832;45.490;4.912;2023-06-14T13:13:19;10.27;;;6.55;;
40122;SDS011;25832;45.490;4.912;2023-06-14T13:15:45;9.48;;;6.88;;
40122;SDS011;25832;45.490;4.912;2023-06-14T13:18:11;8.68;;;5.43;;
40122;SDS011;25832;45.490;4.912;2023-06-14T13:20:40;7.63;;;4.47;;
40122;SDS011;25832;45.490;4.912;2023-06-14T13:23:06;14.20;;;5.95;;
40122;SDS011;25832;45.490;4.912;2023-06-14T13:25:33;9.07;;;5.28;;
40122;SDS011;25832;45.490;4.912;2023-06-14T13:27:59;13.38;;;7.68;;
40122;SDS011;25832;45.490;4.912;2023-06-14T13:30:25;6.93;;;4.78;;
40122;SDS011;25832;45.490;4.912;2023-06-14T13:32:51;6.75;;;5.22;;
40122;SDS011;25832;45.490;4.912;2023-06-14T13:35:20;8.98;;;5.03;;
40122;SDS011;25832;45.490;4.912;2023-06-14T13:37:45;8.00;;;5.03;;
40122;SDS011;25832;45.490;4.912;2023-06-14T13:40:11;9.63;;;5.40;;
40122;SDS011;25832;45.490;4.912;2023-06-14T13:42:37;6.85;;;5.45;;
40122;SDS011;25832;45.490;4.912;2023-06-14T13:45:03;8.30;;;4.90;;
40122;SDS011;25832;45.490;4.912;2023-06-14T13:47:29;6.85;;;4.78;;
40122;SDS011;25832;45.490;4.912;2023-06-14T13:49:56;5.45;;;4.93;;
40122;SDS011;25832;45.490;4.912;2023-06-14T13:52:21;5.50;;;4.80;;
40122;SDS011;25832;45.490;4.912;2023-06-14T13:54:47;7.75;;;4.95;;
40122;SDS011;25832;45.490;4.912;2023-06-14T13:57:13;8.40;;;4.78;;
40122;SDS011;25832;45.490;4.912;2023-06-14T13:59:40;5.28;;;4.65;;
40122;SDS011;25832;45.490;4.912;2023-06-14T14:02:06;6.90;;;5.00;;
40122;SDS011;25832;45.490;4.912;2023-06-14T14:04:33;4.82;;;3.92;;
40122;SDS011;25832;45.490;4.912;2023-06-14T14:07:00;5.20;;;4.45;;
40122;SDS011;25832;45.490;4.912;2023-06-14T14:09:27;9.02;;;4.50;;
40122;SDS011;25832;45.490;4.912;2023-06-14T14:11:52;8.40;;;4.72;;
40122;SDS011;25832;45.490;4.912;2023-06-14T14:14:18;5.93;;;4.55;;
40122;SDS011;25832;45.490;4.912;2023-06-14T14:16:44;7.18;;;4.45;;
40122;SDS011;25832;45.490;4.912;2023-06-14T14:19:09;7.38;;;4.95;;
40122;SDS011;25832;45.490;4.912;2023-06-14T14:21:35;6.03;;;4.78;;
40122;SDS011;25832;45.490;4.912;2023-06-14T14:24:01;5.75;;;4.25;;
40122;SDS011;25832;45.490;4.912;2023-06-14T14:26:27;7.45;;;4.18;;
40122;SDS011;25832;45.490;4.912;2023-06-14T14:28:53;10.07;;;4.28;;
40122;SDS011;25832;45.490;4.912;2023-06-14T14:31:19;5.00;;;4.10;;
40122;SDS011;25832;45.490;4.912;2023-06-14T14:33:44;10.88;;;6.05;;
40122;SDS011;25832;45.490;4.912;2023-06-14T14:36:10;5.57;;;3.67;;
40122;SDS011;25832;45.490;4.912;2023-06-14T14:38:36;6.65;;;4.00;;
40122;SDS011;25832;45.490;4.912;2023-06-14T14:41:01;7.57;;;4.97;;
40122;SDS011;25832;45.490;4.912;2023-06-14T14:43:27;6.30;;;4.40;;
40122;SDS011;25832;45.490;4.912;2023-06-14T14:45:56;8.50;;;4.68;;
40122;SDS011;25832;45.490;4.912;2023-06-14T14:48:22;10.80;;;5.32;;
40122;SDS011;25832;45.490;4.912;2023-06-14T14:50:56;6.65;;;4.95;;
40122;SDS011;25832;45.490;4.912;2023-06-14T14:53:22;5.00;;;4.18;;
40122;SDS011;25832;45.490;4.912;2023-06-14T14:55:48;12.07;;;5.75;;
40122;SDS011;25832;45.490;4.912;2023-06-14T14:58:14;11.07;;;4.88;;
40122;SDS011;25832;45.490;4.912;2023-06-14T15:00:46;7.93;;;4.90;;
40122;SDS011;25832;45.490;4.912;2023-06-14T15:03:12;5.25;;;4.10;;
40122;SDS011;25832;45.490;4.912;2023-06-14T15:05:39;11.27;;;3.90;;
40122;SDS011;25832;45.490;4.912;2023-06-14T15:08:05;11.15;;;5.70;;
40122;SDS011;25832;45.490;4.912;2023-06-14T15:10:36;9.07;;;4.40;;
40122;SDS011;25832;45.490;4.912;2023-06-14T15:13:06;6.20;;;3.83;;
40122;SDS011;25832;45.490;4.912;2023-06-14T15:15:33;7.13;;;4.15;;